• Join FlightAware (Why Join?)
  • Login
  • US Flag 
02:20PM EDT


 

Airport Tracker/Info


-or-


 

Live Flight TrackerFlight Track Log ✈ EJA604 ✈ 02-May-2013 ✈ KPWK - KBNA

Flight Track Log - Related Links

Times and Time Zones

All times are in EDT time to prevent confusion due to time zone crossing. See the EJA604 flight status page for this flight to view local times or setup timezone preferences in your user account.

Time Position Orientation Groundspeed Altitude Reporting Facility
EDT Latitude Longitude Course Direction KTS MPH feet Rate Location/Type
12:28PM 42.1333 -87.9167 354° North 151 174 2,200  Level Chicago TRACON
12:29PM 42.1978 -87.9253 354° North 235 270 5,700 2,880 Climbing Chicago Center
12:30PM 42.2056 -87.8356 83° East 247 284 8,800 3,000 Climbing Chicago Center
12:31PM 42.1447 -87.8022 158° South 261 300 11,900 2,820 Climbing Chicago Center
12:32PM 42.0675 -87.7969 177° South 274 315 14,700 2,700 Climbing Chicago Center
12:33PM 41.9894 -87.7994 181° South 279 321 17,600 2,460 Climbing Chicago Center
12:35PM 41.9056 -87.7981 179° South 297 342 19,900 2,460 Climbing Chicago Center
12:36PM 41.7997 -87.7969 180° South 315 362 22,800 1,560 Climbing Chicago Center
12:37PM 41.7008 -87.7956 179° South 352 405 23,200 1,140 Climbing Chicago Center
12:38PM 41.5961 -87.7947 180° South 375 432 25,200 2,160 Climbing Chicago Center
12:39PM 41.4961 -87.7933 179° South 361 415 27,700 2,160 Climbing Chicago Center
12:40PM 41.3986 -87.7925 180° South 349 402 29,700 1,740 Climbing Chicago Center
12:41PM 41.2997 -87.7917 180° South 351 404 31,300 1,500 Climbing Chicago Center
12:42PM 41.1994 -87.7900 179° South 356 410 32,800 1,560 Climbing Chicago Center
12:43PM 41.0806 -87.7897 180° South 356 410 34,600 1,620 Climbing Chicago Center
12:44PM 40.9828 -87.7886 180° South 353 406 36,200 1,500 Climbing Chicago Center
12:45PM 40.8850 -87.7869 179° South 353 406 37,700 840 Climbing Chicago Center
12:46PM 40.7853 -87.7850 179° South 356 410 38,000 120 Climbing Chicago Center
12:47PM 40.6756 -87.7850 180° South 388 447 38,000  Level Chicago Center
12:48PM 40.5636 -87.7831 179° South 403 464 38,000  Level Chicago Center
12:49PM 40.4311 -87.7822 180° South 398 458 38,000  Level Chicago Center
12:50PM 40.3550 -87.7833 181° South 399 459 38,000  Level Indianapolis Center
12:52PM 40.1339 -87.7797 179° South 400 460 38,000  Level Indianapolis Center
12:53PM 40.0225 -87.7789 180° South 402 463 38,000  Level Indianapolis Center
12:54PM 39.9131 -87.7778 180° South 397 457 38,000  Level Indianapolis Center
12:55PM 39.7817 -87.7769 180° South 396 456 38,000 -720 Level Indianapolis Center
12:57PM 39.5647 -87.7744 179° South 391 450 35,900 -1,200 Descending Indianapolis Center
12:58PM 39.4611 -87.7742 180° South 377 434 34,400 -1,500 Descending Indianapolis Center
12:59PM 39.3508 -87.7733 180° South 377 434 32,800 -1,500 Descending Indianapolis Center
01:00PM 39.2436 -87.7719 179° South 383 441 31,300 -900 Descending Indianapolis Center
01:01PM 39.1328 -87.7561 174° South 401 461 31,000 -180 Descending Indianapolis Center
01:02PM 39.0228 -87.7239 167° South 402 463 31,000  Level Indianapolis Center
01:03PM 38.8892 -87.6856 167° South 408 470 31,000  Level Indianapolis Center
01:04PM 38.7758 -87.6533 168° South 415 478 31,000  Level Indianapolis Center
01:05PM 38.6622 -87.6206 167° South 418 481 31,000  Level Indianapolis Center
01:06PM 38.5483 -87.5878 167° South 419 482 31,000  Level Indianapolis Center
01:07PM 38.4344 -87.5558 168° South 420 483 31,000  Level Indianapolis Center
01:08PM 38.3206 -87.5233 167° South 420 483 31,000  Level Indianapolis Center
01:09PM 38.1847 -87.4864 168° South 419 482 31,000  Level Indianapolis Center
01:10PM 38.0708 -87.4536 167° South 420 483 31,000  Level Indianapolis Center
01:11PM 37.9572 -87.4219 168° South 420 483 31,000  Level Indianapolis Center
01:12PM 37.8444 -87.3892 167° South 417 480 31,000 -540 Level Indianapolis Center
01:13PM 37.7172 -87.3547 168° South 415 478 30,000 -1,560 Descending Indianapolis Center
01:14PM 37.6069 -87.3222 167° South 405 466 27,800 -2,280 Descending Indianapolis Center
01:15PM 37.5317 -87.3053 170° South 414 476 26,300 -2,280 Descending Memphis Center
01:15PM 37.4900 -87.2964 170° South 417 480 25,600 -2,220 Descending Memphis Center
01:16PM 37.4164 -87.2706 164° South 414 476 24,100 -2,340 Descending Memphis Center
01:16PM 37.3703 -87.2619 172° South 420 483 23,300 -2,040 Descending Memphis Center
01:17PM 37.3178 -87.2483 168° South 409 471 22,100 -3,000 Descending Memphis Center
01:17PM 37.2781 -87.2367 167° South 391 450 20,600 -2,520 Descending Memphis Center
01:18PM 37.2150 -87.2183 167° South 396 456 19,600 -1,140 Descending Memphis Center
01:19PM 37.1142 -87.1858 166° South 378 435 18,700 -1,080 Descending Memphis Center
01:19PM 37.0744 -87.1772 170° South 368 423 18,200 -1,020 Descending Memphis Center
01:20PM 37.0156 -87.1561 164° South 378 435 17,700 -1,020 Descending Memphis Center
01:20PM 36.9694 -87.1450 169° South 369 425 17,200 -1,200 Descending Memphis Center
01:21PM 36.9169 -87.1289 166° South 368 423 16,500 -1,140 Descending Memphis Center
01:21PM 36.8769 -87.1175 167° South 354 407 16,100 -1,140 Descending Memphis Center
01:22PM 36.8222 -87.0989 165° South 362 417 15,400 -1,560 Descending Memphis Center
01:23PM 36.7336 -87.0483 155° Southeast 352 405 13,600 -1,860 Descending Memphis Center
01:24PM 36.6381 -86.9900 154° Southeast 347 399 11,700 -1,860 Descending Memphis Center
01:25PM 36.5575 -86.9367 152° Southeast 342 394 9,900 -1,680 Descending Memphis Center
01:26PM 36.5036 -86.8719 136° Southeast 301 346 8,400 -1,620 Descending Memphis Center
01:27PM 36.4497 -86.8097 137° Southeast 266 306 6,700 -1,980 Descending Memphis Center
01:28PM 36.3939 -86.7581 143° Southeast 255 293 4,500 -1,740 Descending Memphis Center
01:29PM 36.3450 -86.7189 147° Southeast 245 282 3,300 -780 Descending Memphis Center
01:30PM 36.2981 -86.6825 148° Southeast 220 253 3,000 -540 Descending Memphis Center
01:31PM 36.2492 -86.6536 155° Southeast 203 234 2,300 -600 Descending Memphis Center
01:32PM 36.1950 -86.6536 180° South 191 220 1,900 -600 Descending Memphis Center
01:33PM 36.1494 -86.6686 195° South 172 198 1,200 -600 Descending Memphis Center
01:34PM 36.1250 -86.6800 201° Southwest 148 170 700 3,900 Descending Memphis Center
01:35PM 36.0814 -86.6947 195° South 148 170 9,000 8,280 Climbing Memphis Center
01:37PM 36.1167 -86.6667 15° North  Level FlightAware Approximate
01:44PM 36.1245 -86.6782 15° North  Level Estimated
01:45PM 36.1245 -86.6782 15° North  Level Estimated
01:46PM 36.1245 -86.6782 15° North  Level Estimated
01:47PM 36.1245 -86.6782 15° North  Level Estimated
01:48PM 36.1245 -86.6782 15° North  Level Estimated
01:49PM 36.1245 -86.6782 15° North  Level Estimated
01:50PM 36.1245 -86.6782 15° North  Level Estimated
01:51PM 36.1245 -86.6782 15° North  Level Estimated
01:52PM 36.1245 -86.6782 15° North  Level Estimated